WZZ41MK EPGD-EKCH
Flight info
| Callsign | WZZ41MK |
|---|---|
| Flight time | 0h 46m |
| Altitude | 30000 |
| Route | DEXIR Y100 MALOX L621 LUSID DCT ROE M743 TIDVU |
| Aircraft | A21N/M-SDE1E2E3FGIJ1J4RWXY/LB1 |
Departure
| Time | 2026-04-25 11:56 |
|---|---|
| Airport | Gdańsk Lech Wałęsa Airport (EPGD) |
Arrival
| Time | 2026-04-25 12:42 |
|---|---|
| Airport | Copenhagen Kastrup Airport (EKCH) |
| Time | Latitude | Longitude | Altitude | Speed | Heading |
|---|---|---|---|---|---|
| 2026-04-25 11:24 | 54.38176 | 18.46377 | 457 ft | 0 kts | 22° |
| 2026-04-25 11:45 | 54.38168 | 18.46372 | 457 ft | 2 kts | 23° |
| 2026-04-25 11:46 | 54.38154 | 18.46361 | 457 ft | 2 kts | 24° |
| 2026-04-25 11:46 | 54.38141 | 18.46348 | 457 ft | 2 kts | 58° |
| 2026-04-25 11:46 | 54.38137 | 18.46324 | 457 ft | 2 kts | 95° |
| 2026-04-25 11:46 | 54.38139 | 18.46310 | 457 ft | 0 kts | 116° |
| 2026-04-25 11:47 | 54.38141 | 18.46302 | 457 ft | 0 kts | 113° |
| 2026-04-25 11:49 | 54.38140 | 18.46308 | 457 ft | 2 kts | 111° |
| 2026-04-25 11:49 | 54.38131 | 18.46348 | 456 ft | 5 kts | 111° |
| 2026-04-25 11:49 | 54.38114 | 18.46416 | 456 ft | 7 kts | 112° |
| 2026-04-25 11:49 | 54.38089 | 18.46516 | 456 ft | 10 kts | 112° |
| 2026-04-25 11:50 | 54.38043 | 18.46611 | 456 ft | 11 kts | 174° |
| 2026-04-25 11:50 | 54.37971 | 18.46586 | 456 ft | 9 kts | 169° |
| 2026-04-25 11:50 | 54.37923 | 18.46670 | 456 ft | 11 kts | 114° |
| 2026-04-25 11:50 | 54.37888 | 18.46812 | 457 ft | 13 kts | 112° |
| 2026-04-25 11:51 | 54.37848 | 18.46976 | 457 ft | 15 kts | 111° |
| 2026-04-25 11:51 | 54.37803 | 18.47154 | 458 ft | 16 kts | 114° |
| 2026-04-25 11:51 | 54.37758 | 18.47337 | 460 ft | 17 kts | 112° |
| 2026-04-25 11:51 | 54.37712 | 18.47524 | 463 ft | 16 kts | 112° |
| 2026-04-25 11:52 | 54.37669 | 18.47697 | 467 ft | 15 kts | 112° |
| 2026-04-25 11:52 | 54.37627 | 18.47866 | 470 ft | 15 kts | 112° |
| 2026-04-25 11:52 | 54.37587 | 18.48030 | 473 ft | 14 kts | 112° |
| 2026-04-25 11:52 | 54.37547 | 18.48190 | 476 ft | 14 kts | 112° |
| 2026-04-25 11:53 | 54.37510 | 18.48340 | 479 ft | 13 kts | 112° |
| 2026-04-25 11:53 | 54.37474 | 18.48486 | 483 ft | 13 kts | 112° |
| 2026-04-25 11:53 | 54.37439 | 18.48628 | 486 ft | 12 kts | 112° |
| 2026-04-25 11:53 | 54.37403 | 18.48771 | 488 ft | 13 kts | 112° |
| 2026-04-25 11:54 | 54.37367 | 18.48915 | 491 ft | 13 kts | 113° |
| 2026-04-25 11:54 | 54.37329 | 18.49067 | 493 ft | 14 kts | 113° |
| 2026-04-25 11:54 | 54.37218 | 18.49253 | 495 ft | 10 kts | 204° |
| 2026-04-25 11:55 | 54.37166 | 18.49171 | 495 ft | 10 kts | 237° |
| 2026-04-25 11:55 | 54.37157 | 18.49040 | 493 ft | 14 kts | 286° |
| 2026-04-25 11:55 | 54.37273 | 18.48574 | 486 ft | 79 kts | 292° |
| 2026-04-25 11:55 | 54.37585 | 18.47345 | 490 ft | 141 kts | 291° |
| 2026-04-25 11:56 | 54.37994 | 18.45800 | 1143 ft | 145 kts | 289° |
| 2026-04-25 11:56 | 54.38362 | 18.44282 | 2053 ft | 137 kts | 289° |
| 2026-04-25 11:56 | 54.38711 | 18.42797 | 2754 ft | 137 kts | 291° |
| 2026-04-25 11:56 | 54.39072 | 18.41288 | 3411 ft | 140 kts | 291° |
| 2026-04-25 11:57 | 54.39446 | 18.39745 | 3978 ft | 147 kts | 292° |
| 2026-04-25 11:57 | 54.39839 | 18.38031 | 4421 ft | 163 kts | 288° |
| 2026-04-25 11:57 | 54.40127 | 18.36059 | 4868 ft | 180 kts | 284° |
| 2026-04-25 11:57 | 54.40417 | 18.33831 | 5236 ft | 202 kts | 284° |
| 2026-04-25 11:58 | 54.40739 | 18.31385 | 5709 ft | 221 kts | 284° |
| 2026-04-25 11:58 | 54.41093 | 18.28736 | 6237 ft | 238 kts | 284° |
| 2026-04-25 11:58 | 54.41476 | 18.25891 | 6729 ft | 256 kts | 284° |
| 2026-04-25 11:58 | 54.41891 | 18.22831 | 7354 ft | 268 kts | 284° |
| 2026-04-25 11:59 | 54.42312 | 18.19731 | 8228 ft | 271 kts | 284° |
| 2026-04-25 11:59 | 54.42739 | 18.16582 | 9079 ft | 273 kts | 284° |
| 2026-04-25 11:59 | 54.43170 | 18.13399 | 9878 ft | 277 kts | 284° |
| 2026-04-25 12:00 | 54.44044 | 18.06951 | 11393 ft | 283 kts | 284° |
| 2026-04-25 12:00 | 54.44495 | 18.03617 | 12107 ft | 286 kts | 284° |
| 2026-04-25 12:00 | 54.45388 | 17.96994 | 13581 ft | 289 kts | 284° |
| 2026-04-25 12:01 | 54.45848 | 17.93560 | 14263 ft | 293 kts | 284° |
| 2026-04-25 12:01 | 54.46316 | 17.90077 | 14989 ft | 295 kts | 284° |
| 2026-04-25 12:01 | 54.46775 | 17.86637 | 15662 ft | 297 kts | 284° |
| 2026-04-25 12:01 | 54.47239 | 17.83163 | 16315 ft | 298 kts | 284° |
| 2026-04-25 12:02 | 54.48175 | 17.76124 | 17596 ft | 302 kts | 283° |
| 2026-04-25 12:02 | 54.48644 | 17.72584 | 18172 ft | 304 kts | 283° |
| 2026-04-25 12:02 | 54.49116 | 17.69027 | 18797 ft | 305 kts | 283° |
| 2026-04-25 12:03 | 54.49580 | 17.65506 | 19401 ft | 306 kts | 283° |
| 2026-04-25 12:03 | 54.50053 | 17.61901 | 20003 ft | 308 kts | 283° |
| 2026-04-25 12:03 | 54.50522 | 17.58327 | 20511 ft | 310 kts | 283° |
| 2026-04-25 12:03 | 54.50991 | 17.54743 | 21022 ft | 312 kts | 283° |
| 2026-04-25 12:04 | 54.51471 | 17.51067 | 21538 ft | 314 kts | 283° |
| 2026-04-25 12:04 | 54.51946 | 17.47419 | 22026 ft | 316 kts | 283° |
| 2026-04-25 12:04 | 54.52425 | 17.43730 | 22522 ft | 319 kts | 283° |
| 2026-04-25 12:04 | 54.52909 | 17.40000 | 23001 ft | 320 kts | 283° |
| 2026-04-25 12:05 | 54.53389 | 17.36278 | 23455 ft | 322 kts | 283° |
| 2026-04-25 12:05 | 54.53877 | 17.32489 | 23918 ft | 325 kts | 283° |
| 2026-04-25 12:05 | 54.54365 | 17.28694 | 24406 ft | 326 kts | 283° |
| 2026-04-25 12:05 | 54.54855 | 17.24885 | 24875 ft | 328 kts | 283° |
| 2026-04-25 12:06 | 54.55349 | 17.21018 | 25290 ft | 331 kts | 283° |
| 2026-04-25 12:06 | 54.55841 | 17.17158 | 25715 ft | 333 kts | 283° |
| 2026-04-25 12:06 | 54.56334 | 17.13293 | 26143 ft | 335 kts | 283° |
| 2026-04-25 12:06 | 54.56833 | 17.09358 | 26552 ft | 337 kts | 283° |
| 2026-04-25 12:07 | 54.57330 | 17.05425 | 26969 ft | 338 kts | 283° |
| 2026-04-25 12:07 | 54.57825 | 17.01487 | 27372 ft | 340 kts | 283° |
| 2026-04-25 12:07 | 54.58335 | 16.97448 | 27688 ft | 344 kts | 283° |
| 2026-04-25 12:07 | 54.58839 | 16.93425 | 27971 ft | 348 kts | 283° |
| 2026-04-25 12:08 | 54.59346 | 16.89371 | 28315 ft | 350 kts | 283° |
| 2026-04-25 12:08 | 54.59865 | 16.85218 | 28675 ft | 352 kts | 283° |
| 2026-04-25 12:08 | 54.60375 | 16.81114 | 29038 ft | 354 kts | 283° |
| 2026-04-25 12:08 | 54.60890 | 16.76979 | 29389 ft | 356 kts | 283° |
| 2026-04-25 12:09 | 54.61406 | 16.72801 | 29705 ft | 358 kts | 283° |
| 2026-04-25 12:09 | 54.61925 | 16.68583 | 29756 ft | 358 kts | 283° |
| 2026-04-25 12:09 | 54.62954 | 16.60189 | 29761 ft | 357 kts | 283° |
| 2026-04-25 12:10 | 54.63969 | 16.51849 | 29770 ft | 358 kts | 283° |
| 2026-04-25 12:10 | 54.64986 | 16.43463 | 29775 ft | 358 kts | 283° |
| 2026-04-25 12:11 | 54.65995 | 16.35090 | 29785 ft | 359 kts | 283° |
| 2026-04-25 12:11 | 54.67005 | 16.26650 | 29775 ft | 358 kts | 282° |
| 2026-04-25 12:12 | 54.67838 | 16.19643 | 29785 ft | 358 kts | 282° |
| 2026-04-25 12:12 | 54.68994 | 16.09839 | 29782 ft | 358 kts | 283° |
| 2026-04-25 12:13 | 54.69987 | 16.01399 | 29782 ft | 357 kts | 282° |
| 2026-04-25 12:13 | 54.70967 | 15.93014 | 29782 ft | 356 kts | 282° |
| 2026-04-25 12:14 | 54.71943 | 15.84624 | 29786 ft | 357 kts | 283° |
| 2026-04-25 12:14 | 54.73417 | 15.76473 | 29778 ft | 357 kts | 291° |
| 2026-04-25 12:15 | 54.75664 | 15.68836 | 29765 ft | 358 kts | 300° |
| 2026-04-25 12:15 | 54.78479 | 15.61744 | 29774 ft | 358 kts | 302° |
| 2026-04-25 12:16 | 54.81369 | 15.54704 | 29775 ft | 358 kts | 302° |
| 2026-04-25 12:16 | 54.84255 | 15.47685 | 29771 ft | 357 kts | 302° |
| 2026-04-25 12:17 | 54.87124 | 15.40689 | 29767 ft | 358 kts | 302° |
| 2026-04-25 12:17 | 54.89994 | 15.33586 | 29769 ft | 356 kts | 300° |
| 2026-04-25 12:18 | 54.92505 | 15.26252 | 29772 ft | 354 kts | 296° |
| 2026-04-25 12:18 | 54.94696 | 15.18633 | 29771 ft | 353 kts | 294° |
| 2026-04-25 12:19 | 54.97911 | 15.07131 | 29771 ft | 353 kts | 294° |
| 2026-04-25 12:20 | 55.00044 | 14.99453 | 29775 ft | 353 kts | 294° |
| 2026-04-25 12:20 | 55.02173 | 14.91747 | 29781 ft | 353 kts | 294° |
| 2026-04-25 12:21 | 55.04299 | 14.84029 | 29790 ft | 353 kts | 294° |
| 2026-04-25 12:21 | 55.06412 | 14.76327 | 29790 ft | 352 kts | 294° |
| 2026-04-25 12:22 | 55.08596 | 14.68824 | 29640 ft | 339 kts | 295° |
| 2026-04-25 12:22 | 55.09658 | 14.65240 | 29423 ft | 328 kts | 295° |
| 2026-04-25 12:22 | 55.10685 | 14.61765 | 29190 ft | 318 kts | 295° |
| 2026-04-25 12:22 | 55.11689 | 14.58347 | 28802 ft | 312 kts | 295° |
| 2026-04-25 12:23 | 55.12683 | 14.54951 | 28283 ft | 310 kts | 295° |
| 2026-04-25 12:23 | 55.13662 | 14.51615 | 27782 ft | 307 kts | 295° |
| 2026-04-25 12:23 | 55.14623 | 14.48326 | 27301 ft | 305 kts | 295° |
| 2026-04-25 12:23 | 55.15580 | 14.45041 | 26815 ft | 302 kts | 295° |
| 2026-04-25 12:24 | 55.16520 | 14.41820 | 26346 ft | 299 kts | 295° |
| 2026-04-25 12:24 | 55.17466 | 14.38570 | 25856 ft | 297 kts | 295° |
| 2026-04-25 12:24 | 55.18388 | 14.35388 | 25376 ft | 294 kts | 295° |
| 2026-04-25 12:24 | 55.19310 | 14.32206 | 24919 ft | 292 kts | 294° |
| 2026-04-25 12:25 | 55.20220 | 14.29063 | 24484 ft | 289 kts | 294° |
| 2026-04-25 12:25 | 55.21131 | 14.25914 | 24032 ft | 287 kts | 294° |
| 2026-04-25 12:25 | 55.22015 | 14.22857 | 23597 ft | 285 kts | 294° |
| 2026-04-25 12:25 | 55.22909 | 14.19752 | 23137 ft | 283 kts | 295° |
| 2026-04-25 12:26 | 55.23782 | 14.16718 | 22675 ft | 281 kts | 295° |
| 2026-04-25 12:26 | 55.24667 | 14.13644 | 22228 ft | 279 kts | 294° |
| 2026-04-25 12:26 | 55.25389 | 14.10547 | 21764 ft | 277 kts | 288° |
| 2026-04-25 12:26 | 55.25939 | 14.07288 | 21033 ft | 285 kts | 286° |
| 2026-04-25 12:27 | 55.26460 | 14.03916 | 20128 ft | 297 kts | 285° |
| 2026-04-25 12:27 | 55.26997 | 14.00365 | 19320 ft | 303 kts | 285° |
| 2026-04-25 12:27 | 55.27526 | 13.96813 | 18785 ft | 301 kts | 285° |
| 2026-04-25 12:27 | 55.28046 | 13.93302 | 18314 ft | 298 kts | 285° |
| 2026-04-25 12:28 | 55.28560 | 13.89803 | 17843 ft | 296 kts | 285° |
| 2026-04-25 12:28 | 55.29074 | 13.86317 | 17333 ft | 295 kts | 285° |
| 2026-04-25 12:28 | 55.29579 | 13.82890 | 16833 ft | 293 kts | 285° |
| 2026-04-25 12:28 | 55.30080 | 13.79459 | 16346 ft | 291 kts | 285° |
| 2026-04-25 12:29 | 55.30584 | 13.76018 | 15860 ft | 289 kts | 285° |
| 2026-04-25 12:29 | 55.31079 | 13.72627 | 15342 ft | 288 kts | 285° |
| 2026-04-25 12:29 | 55.31572 | 13.69261 | 14840 ft | 286 kts | 285° |
| 2026-04-25 12:29 | 55.32063 | 13.65917 | 14353 ft | 284 kts | 285° |
| 2026-04-25 12:30 | 55.32546 | 13.62588 | 13855 ft | 283 kts | 285° |
| 2026-04-25 12:30 | 55.33027 | 13.59274 | 13361 ft | 281 kts | 286° |
| 2026-04-25 12:30 | 55.33510 | 13.55923 | 12871 ft | 280 kts | 285° |
| 2026-04-25 12:30 | 55.33979 | 13.52650 | 12379 ft | 278 kts | 285° |
| 2026-04-25 12:31 | 55.34442 | 13.49394 | 11906 ft | 276 kts | 285° |
| 2026-04-25 12:31 | 55.34904 | 13.46151 | 11433 ft | 274 kts | 286° |
| 2026-04-25 12:31 | 55.35358 | 13.42922 | 10892 ft | 271 kts | 286° |
| 2026-04-25 12:31 | 55.35801 | 13.39713 | 10262 ft | 271 kts | 286° |
| 2026-04-25 12:32 | 55.36235 | 13.36567 | 9843 ft | 262 kts | 286° |
| 2026-04-25 12:32 | 55.36648 | 13.33539 | 9590 ft | 249 kts | 285° |
| 2026-04-25 12:32 | 55.37035 | 13.30633 | 9342 ft | 238 kts | 285° |
| 2026-04-25 12:32 | 55.37402 | 13.27858 | 8951 ft | 234 kts | 285° |
| 2026-04-25 12:33 | 55.37767 | 13.25073 | 8429 ft | 234 kts | 285° |
| 2026-04-25 12:33 | 55.38131 | 13.22307 | 7941 ft | 234 kts | 285° |
| 2026-04-25 12:33 | 55.38491 | 13.19542 | 7544 ft | 232 kts | 285° |
| 2026-04-25 12:33 | 55.38851 | 13.16783 | 7173 ft | 231 kts | 285° |
| 2026-04-25 12:34 | 55.39203 | 13.14047 | 6788 ft | 230 kts | 285° |
| 2026-04-25 12:34 | 55.39551 | 13.11324 | 6396 ft | 229 kts | 285° |
| 2026-04-25 12:34 | 55.39900 | 13.08571 | 5969 ft | 229 kts | 285° |
| 2026-04-25 12:34 | 55.40132 | 13.06758 | 5701 ft | 229 kts | 285° |
| 2026-04-25 12:35 | 55.40591 | 13.03170 | 5179 ft | 228 kts | 285° |
| 2026-04-25 12:35 | 55.40934 | 13.00460 | 4852 ft | 225 kts | 285° |
| 2026-04-25 12:35 | 55.41385 | 12.97854 | 4580 ft | 218 kts | 300° |
| 2026-04-25 12:35 | 55.42448 | 12.96062 | 4313 ft | 217 kts | 329° |
| 2026-04-25 12:36 | 55.43898 | 12.95340 | 4067 ft | 218 kts | 343° |
| 2026-04-25 12:36 | 55.45380 | 12.94932 | 3840 ft | 213 kts | 345° |
| 2026-04-25 12:36 | 55.46822 | 12.94594 | 3670 ft | 205 kts | 345° |
| 2026-04-25 12:36 | 55.48222 | 12.94283 | 3474 ft | 199 kts | 345° |
| 2026-04-25 12:37 | 55.49579 | 12.93987 | 3199 ft | 197 kts | 345° |
| 2026-04-25 12:37 | 55.50872 | 12.93419 | 2943 ft | 183 kts | 323° |
| 2026-04-25 12:37 | 55.51779 | 12.92023 | 2954 ft | 171 kts | 309° |
| 2026-04-25 12:37 | 55.52515 | 12.90398 | 2964 ft | 167 kts | 306° |
| 2026-04-25 12:38 | 55.53167 | 12.88845 | 2954 ft | 151 kts | 304° |
| 2026-04-25 12:38 | 55.53757 | 12.87345 | 2742 ft | 143 kts | 303° |
| 2026-04-25 12:38 | 55.54286 | 12.85950 | 2553 ft | 134 kts | 302° |
| 2026-04-25 12:38 | 55.54781 | 12.84620 | 2377 ft | 125 kts | 302° |
| 2026-04-25 12:39 | 55.55255 | 12.83333 | 2215 ft | 124 kts | 302° |
| 2026-04-25 12:39 | 55.55727 | 12.82051 | 2053 ft | 124 kts | 302° |
| 2026-04-25 12:39 | 55.56193 | 12.80782 | 1891 ft | 123 kts | 302° |
| 2026-04-25 12:39 | 55.56660 | 12.79510 | 1735 ft | 123 kts | 302° |
| 2026-04-25 12:40 | 55.57124 | 12.78248 | 1618 ft | 123 kts | 302° |
| 2026-04-25 12:40 | 55.57592 | 12.76976 | 1431 ft | 123 kts | 302° |
| 2026-04-25 12:40 | 55.58054 | 12.75722 | 1257 ft | 122 kts | 302° |
| 2026-04-25 12:40 | 55.58521 | 12.74458 | 1072 ft | 122 kts | 302° |
| 2026-04-25 12:41 | 55.58982 | 12.73209 | 908 ft | 121 kts | 301° |
| 2026-04-25 12:41 | 55.59441 | 12.71960 | 747 ft | 121 kts | 301° |
| 2026-04-25 12:41 | 55.59898 | 12.70723 | 585 ft | 121 kts | 301° |
| 2026-04-25 12:41 | 55.60352 | 12.69491 | 437 ft | 120 kts | 301° |
| 2026-04-25 12:42 | 55.60813 | 12.68251 | 249 ft | 119 kts | 300° |
| 2026-04-25 12:42 | 55.61108 | 12.67448 | 154 ft | 116 kts | 300° |
| 2026-04-25 12:42 | 55.61669 | 12.65926 | 18 ft | 86 kts | 303° |
| 2026-04-25 12:42 | 55.61893 | 12.65329 | 20 ft | 42 kts | 302° |
| 2026-04-25 12:43 | 55.61986 | 12.65064 | 21 ft | 13 kts | 303° |
| 2026-04-25 12:43 | 55.62054 | 12.65009 | 21 ft | 10 kts | 18° |
| 2026-04-25 12:43 | 55.62137 | 12.65095 | 20 ft | 5 kts | 32° |
| 2026-04-25 12:44 | 55.62172 | 12.65135 | 20 ft | 6 kts | 33° |
| 2026-04-25 12:44 | 55.62217 | 12.65181 | 20 ft | 7 kts | 20° |
| 2026-04-25 12:44 | 55.62291 | 12.65273 | 19 ft | 8 kts | 79° |
| 2026-04-25 12:45 | 55.62342 | 12.65329 | 19 ft | 9 kts | 359° |
| 2026-04-25 12:45 | 55.62405 | 12.65329 | 19 ft | 8 kts | 8° |
| 2026-04-25 12:45 | 55.62442 | 12.65552 | 18 ft | 12 kts | 89° |
| 2026-04-25 12:46 | 55.62444 | 12.65667 | 17 ft | 4 kts | 80° |
| 2026-04-25 12:46 | 55.62474 | 12.65685 | 17 ft | 5 kts | 4° |
| 2026-04-25 12:46 | 55.62505 | 12.65686 | 17 ft | 3 kts | 360° |
| 2026-04-25 12:46 | 55.62518 | 12.65685 | 17 ft | 0 kts | 359° |